Aviation Digital Data Service (ADDS)

Output produced by TAFs form (0911 UTC 28 January 2015)
found at http://www.aviationweather.gov/adds/tafs/
 
KSBY 280840Z 2809/2906 34012G20KT P6SM SKC 
     FM281400 32015G22KT P6SM SKC 
     FM282200 33007KT P6SM SKC